sensor_id;sensor_type;location;lat;lon;timestamp;temperature;humidity
83685;DHT22;73666;51.304;5.776;2024-02-26T00:03:48;6.20;68.50
83685;DHT22;73666;51.304;5.776;2024-02-26T00:08:49;6.20;68.70
83685;DHT22;73666;51.304;5.776;2024-02-26T00:13:50;6.20;68.70
83685;DHT22;73666;51.304;5.776;2024-02-26T00:18:51;6.10;69.00
83685;DHT22;73666;51.304;5.776;2024-02-26T00:23:53;6.00;69.30
83685;DHT22;73666;51.304;5.776;2024-02-26T00:28:54;5.90;69.60
83685;DHT22;73666;51.304;5.776;2024-02-26T00:33:55;5.80;69.90
83685;DHT22;73666;51.304;5.776;2024-02-26T00:38:56;5.70;70.20
83685;DHT22;73666;51.304;5.776;2024-02-26T00:43:57;5.70;70.50
83685;DHT22;73666;51.304;5.776;2024-02-26T00:48:58;5.60;70.70
83685;DHT22;73666;51.304;5.776;2024-02-26T00:53:59;5.60;71.00
83685;DHT22;73666;51.304;5.776;2024-02-26T00:58:59;5.50;71.30
83685;DHT22;73666;51.304;5.776;2024-02-26T01:04:00;5.50;71.70
83685;DHT22;73666;51.304;5.776;2024-02-26T01:09:01;5.30;72.20
83685;DHT22;73666;51.304;5.776;2024-02-26T01:14:02;5.30;72.50
83685;DHT22;73666;51.304;5.776;2024-02-26T01:19:04;5.20;72.80
83685;DHT22;73666;51.304;5.776;2024-02-26T01:24:05;5.10;73.10
83685;DHT22;73666;51.304;5.776;2024-02-26T01:29:06;5.10;73.40
83685;DHT22;73666;51.304;5.776;2024-02-26T01:34:07;5.00;73.70
83685;DHT22;73666;51.304;5.776;2024-02-26T01:39:08;5.00;74.00
83685;DHT22;73666;51.304;5.776;2024-02-26T01:44:12;5.00;74.20
83685;DHT22;73666;51.304;5.776;2024-02-26T01:49:15;5.00;74.20
83685;DHT22;73666;51.304;5.776;2024-02-26T01:54:16;5.00;74.70
83685;DHT22;73666;51.304;5.776;2024-02-26T01:59:17;5.00;75.00
83685;DHT22;73666;51.304;5.776;2024-02-26T02:04:18;4.90;75.30
83685;DHT22;73666;51.304;5.776;2024-02-26T02:09:19;4.90;75.40
83685;DHT22;73666;51.304;5.776;2024-02-26T02:14:20;4.90;75.60
83685;DHT22;73666;51.304;5.776;2024-02-26T02:19:21;4.90;75.70
83685;DHT22;73666;51.304;5.776;2024-02-26T02:24:21;4.90;75.80
83685;DHT22;73666;51.304;5.776;2024-02-26T02:29:22;4.90;75.90
83685;DHT22;73666;51.304;5.776;2024-02-26T02:34:24;4.90;76.00
83685;DHT22;73666;51.304;5.776;2024-02-26T02:39:25;4.90;76.20
83685;DHT22;73666;51.304;5.776;2024-02-26T02:44:25;4.90;76.30
83685;DHT22;73666;51.304;5.776;2024-02-26T02:49:26;4.90;76.50
83685;DHT22;73666;51.304;5.776;2024-02-26T02:54:27;4.90;76.50
83685;DHT22;73666;51.304;5.776;2024-02-26T02:59:28;4.90;76.70
83685;DHT22;73666;51.304;5.776;2024-02-26T03:04:28;4.90;76.80
83685;DHT22;73666;51.304;5.776;2024-02-26T03:09:30;4.90;77.00
83685;DHT22;73666;51.304;5.776;2024-02-26T03:14:30;4.80;77.00
83685;DHT22;73666;51.304;5.776;2024-02-26T03:19:31;4.80;77.20
83685;DHT22;73666;51.304;5.776;2024-02-26T03:24:32;4.80;77.20
83685;DHT22;73666;51.304;5.776;2024-02-26T03:29:33;4.80;77.30
83685;DHT22;73666;51.304;5.776;2024-02-26T03:34:33;4.80;77.30
83685;DHT22;73666;51.304;5.776;2024-02-26T03:39:35;4.70;77.50
83685;DHT22;73666;51.304;5.776;2024-02-26T03:44:35;4.70;77.50
83685;DHT22;73666;51.304;5.776;2024-02-26T03:49:36;4.70;77.60
83685;DHT22;73666;51.304;5.776;2024-02-26T03:54:37;4.70;77.70
83685;DHT22;73666;51.304;5.776;2024-02-26T03:59:38;4.70;77.70
83685;DHT22;73666;51.304;5.776;2024-02-26T04:04:40;4.70;77.80
83685;DHT22;73666;51.304;5.776;2024-02-26T04:09:41;4.70;77.80
83685;DHT22;73666;51.304;5.776;2024-02-26T04:14:41;4.60;77.90
83685;DHT22;73666;51.304;5.776;2024-02-26T04:19:45;4.60;78.00
83685;DHT22;73666;51.304;5.776;2024-02-26T04:24:46;4.50;78.10
83685;DHT22;73666;51.304;5.776;2024-02-26T04:29:47;4.50;78.10
83685;DHT22;73666;51.304;5.776;2024-02-26T04:34:47;4.50;78.20
83685;DHT22;73666;51.304;5.776;2024-02-26T04:39:48;4.50;78.30
83685;DHT22;73666;51.304;5.776;2024-02-26T04:44:49;4.50;78.40
83685;DHT22;73666;51.304;5.776;2024-02-26T04:49:50;4.50;78.40
83685;DHT22;73666;51.304;5.776;2024-02-26T04:54:51;4.50;78.50
83685;DHT22;73666;51.304;5.776;2024-02-26T04:59:52;4.50;78.50
83685;DHT22;73666;51.304;5.776;2024-02-26T05:04:53;4.50;78.60
83685;DHT22;73666;51.304;5.776;2024-02-26T05:09:53;4.50;78.60
83685;DHT22;73666;51.304;5.776;2024-02-26T05:14:54;4.40;78.60
83685;DHT22;73666;51.304;5.776;2024-02-26T05:19:56;4.40;78.60
83685;DHT22;73666;51.304;5.776;2024-02-26T05:24:56;4.40;78.70
83685;DHT22;73666;51.304;5.776;2024-02-26T05:29:58;4.40;78.80
83685;DHT22;73666;51.304;5.776;2024-02-26T05:35:00;4.40;78.70
83685;DHT22;73666;51.304;5.776;2024-02-26T05:40:02;4.30;78.90
83685;DHT22;73666;51.304;5.776;2024-02-26T05:45:05;4.30;78.90
83685;DHT22;73666;51.304;5.776;2024-02-26T05:50:07;4.30;79.00
83685;DHT22;73666;51.304;5.776;2024-02-26T05:55:08;4.30;79.00
83685;DHT22;73666;51.304;5.776;2024-02-26T06:00:11;4.30;79.10
83685;DHT22;73666;51.304;5.776;2024-02-26T06:05:13;4.30;79.10
83685;DHT22;73666;51.304;5.776;2024-02-26T06:10:13;4.30;79.00
83685;DHT22;73666;51.304;5.776;2024-02-26T06:15:20;4.20;79.10
83685;DHT22;73666;51.304;5.776;2024-02-26T06:20:22;4.20;79.20
83685;DHT22;73666;51.304;5.776;2024-02-26T06:25:23;4.30;79.30
83685;DHT22;73666;51.304;5.776;2024-02-26T06:30:24;4.30;79.30
83685;DHT22;73666;51.304;5.776;2024-02-26T06:35:25;4.30;79.30
83685;DHT22;73666;51.304;5.776;2024-02-26T06:40:26;4.30;79.30
83685;DHT22;73666;51.304;5.776;2024-02-26T06:45:27;4.20;79.40
83685;DHT22;73666;51.304;5.776;2024-02-26T06:50:28;4.30;79.50
83685;DHT22;73666;51.304;5.776;2024-02-26T06:55:29;4.20;79.50
83685;DHT22;73666;51.304;5.776;2024-02-26T07:00:31;4.30;79.60
83685;DHT22;73666;51.304;5.776;2024-02-26T07:05:32;4.20;79.60
83685;DHT22;73666;51.304;5.776;2024-02-26T07:10:32;4.30;79.60
83685;DHT22;73666;51.304;5.776;2024-02-26T07:15:33;4.30;79.60
83685;DHT22;73666;51.304;5.776;2024-02-26T07:20:34;4.30;79.70
83685;DHT22;73666;51.304;5.776;2024-02-26T07:25:35;4.30;79.70
83685;DHT22;73666;51.304;5.776;2024-02-26T07:30:36;4.30;79.70
83685;DHT22;73666;51.304;5.776;2024-02-26T07:35:37;4.40;79.80
83685;DHT22;73666;51.304;5.776;2024-02-26T07:40:40;4.40;79.70
83685;DHT22;73666;51.304;5.776;2024-02-26T07:45:40;4.40;79.80
83685;DHT22;73666;51.304;5.776;2024-02-26T07:50:41;4.40;79.70
83685;DHT22;73666;51.304;5.776;2024-02-26T07:55:44;4.40;79.80
83685;DHT22;73666;51.304;5.776;2024-02-26T08:00:46;4.50;79.80
83685;DHT22;73666;51.304;5.776;2024-02-26T08:05:47;4.50;79.70
83685;DHT22;73666;51.304;5.776;2024-02-26T08:10:47;4.50;79.80
83685;DHT22;73666;51.304;5.776;2024-02-26T08:15:48;4.50;79.80
83685;DHT22;73666;51.304;5.776;2024-02-26T08:20:50;4.50;79.90
83685;DHT22;73666;51.304;5.776;2024-02-26T08:25:52;4.50;79.90
83685;DHT22;73666;51.304;5.776;2024-02-26T08:30:55;4.50;79.90
83685;DHT22;73666;51.304;5.776;2024-02-26T08:35:55;4.50;80.00
83685;DHT22;73666;51.304;5.776;2024-02-26T08:40:56;4.60;80.00
83685;DHT22;73666;51.304;5.776;2024-02-26T08:45:57;4.70;80.00
83685;DHT22;73666;51.304;5.776;2024-02-26T08:50:58;4.70;79.80
83685;DHT22;73666;51.304;5.776;2024-02-26T08:55:59;4.70;79.70
83685;DHT22;73666;51.304;5.776;2024-02-26T09:01:00;4.70;79.80
83685;DHT22;73666;51.304;5.776;2024-02-26T09:06:01;4.60;79.60
83685;DHT22;73666;51.304;5.776;2024-02-26T09:11:02;4.50;79.70
83685;DHT22;73666;51.304;5.776;2024-02-26T09:16:06;4.50;79.70
83685;DHT22;73666;51.304;5.776;2024-02-26T09:21:07;4.50;79.80
83685;DHT22;73666;51.304;5.776;2024-02-26T09:26:08;4.50;79.70
83685;DHT22;73666;51.304;5.776;2024-02-26T09:31:09;4.50;79.80
83685;DHT22;73666;51.304;5.776;2024-02-26T09:36:10;4.50;79.70
83685;DHT22;73666;51.304;5.776;2024-02-26T09:41:14;4.50;79.80
83685;DHT22;73666;51.304;5.776;2024-02-26T09:46:16;4.50;79.80
83685;DHT22;73666;51.304;5.776;2024-02-26T09:51:24;4.50;79.80
83685;DHT22;73666;51.304;5.776;2024-02-26T09:56:26;4.50;79.80
83685;DHT22;73666;51.304;5.776;2024-02-26T10:01:27;4.50;79.90
83685;DHT22;73666;51.304;5.776;2024-02-26T10:06:32;4.50;79.90
83685;DHT22;73666;51.304;5.776;2024-02-26T10:11:33;4.50;80.00
83685;DHT22;73666;51.304;5.776;2024-02-26T10:16:35;4.50;80.00
83685;DHT22;73666;51.304;5.776;2024-02-26T10:21:36;4.50;79.90
83685;DHT22;73666;51.304;5.776;2024-02-26T10:26:37;4.50;80.00
83685;DHT22;73666;51.304;5.776;2024-02-26T10:31:42;4.50;80.10
83685;DHT22;73666;51.304;5.776;2024-02-26T10:36:42;4.50;80.10
83685;DHT22;73666;51.304;5.776;2024-02-26T10:41:44;4.50;80.10
83685;DHT22;73666;51.304;5.776;2024-02-26T10:46:48;4.60;80.00
83685;DHT22;73666;51.304;5.776;2024-02-26T10:51:56;4.60;80.00
83685;DHT22;73666;51.304;5.776;2024-02-26T10:57:01;4.60;80.00
83685;DHT22;73666;51.304;5.776;2024-02-26T11:02:02;4.70;80.10
83685;DHT22;73666;51.304;5.776;2024-02-26T11:07:03;4.70;80.00
83685;DHT22;73666;51.304;5.776;2024-02-26T11:12:05;4.70;80.10
83685;DHT22;73666;51.304;5.776;2024-02-26T11:17:11;4.70;80.20
83685;DHT22;73666;51.304;5.776;2024-02-26T11:22:13;4.70;80.10
83685;DHT22;73666;51.304;5.776;2024-02-26T11:27:16;4.70;80.10
83685;DHT22;73666;51.304;5.776;2024-02-26T11:32:18;4.70;80.00
83685;DHT22;73666;51.304;5.776;2024-02-26T11:37:19;4.80;80.00
83685;DHT22;73666;51.304;5.776;2024-02-26T11:42:24;4.80;80.00
83685;DHT22;73666;51.304;5.776;2024-02-26T11:47:30;4.90;79.80
83685;DHT22;73666;51.304;5.776;2024-02-26T11:52:35;4.80;79.80
83685;DHT22;73666;51.304;5.776;2024-02-26T11:57:39;4.90;80.00
83685;DHT22;73666;51.304;5.776;2024-02-26T12:02:44;4.90;79.70
83685;DHT22;73666;51.304;5.776;2024-02-26T12:07:52;4.90;79.80
83685;DHT22;73666;51.304;5.776;2024-02-26T12:12:58;4.90;79.80
83685;DHT22;73666;51.304;5.776;2024-02-26T12:18:00;4.90;79.70
83685;DHT22;73666;51.304;5.776;2024-02-26T12:23:03;5.00;79.80
83685;DHT22;73666;51.304;5.776;2024-02-26T12:28:04;5.00;80.00
83685;DHT22;73666;51.304;5.776;2024-02-26T12:33:05;5.00;79.70
83685;DHT22;73666;51.304;5.776;2024-02-26T12:38:08;5.00;79.80
83685;DHT22;73666;51.304;5.776;2024-02-26T12:43:09;5.00;79.90
83685;DHT22;73666;51.304;5.776;2024-02-26T12:48:13;5.00;79.80
83685;DHT22;73666;51.304;5.776;2024-02-26T12:53:14;5.00;79.80
83685;DHT22;73666;51.304;5.776;2024-02-26T12:58:15;5.00;80.00
83685;DHT22;73666;51.304;5.776;2024-02-26T13:03:16;5.00;80.00
83685;DHT22;73666;51.304;5.776;2024-02-26T13:08:18;5.00;80.10
83685;DHT22;73666;51.304;5.776;2024-02-26T13:13:19;5.10;80.00
83685;DHT22;73666;51.304;5.776;2024-02-26T13:18:20;5.10;79.90
83685;DHT22;73666;51.304;5.776;2024-02-26T13:23:21;5.10;79.90
83685;DHT22;73666;51.304;5.776;2024-02-26T13:28:22;5.10;80.00
83685;DHT22;73666;51.304;5.776;2024-02-26T13:33:25;5.10;80.10
83685;DHT22;73666;51.304;5.776;2024-02-26T13:38:27;5.20;80.10
83685;DHT22;73666;51.304;5.776;2024-02-26T13:43:31;5.20;80.10
83685;DHT22;73666;51.304;5.776;2024-02-26T13:48:32;5.20;80.00
83685;DHT22;73666;51.304;5.776;2024-02-26T13:53:33;5.30;80.00
83685;DHT22;73666;51.304;5.776;2024-02-26T13:58:34;5.30;79.90
83685;DHT22;73666;51.304;5.776;2024-02-26T14:03:34;5.30;80.00
83685;DHT22;73666;51.304;5.776;2024-02-26T14:08:38;5.30;80.00
83685;DHT22;73666;51.304;5.776;2024-02-26T14:13:39;5.30;79.90
83685;DHT22;73666;51.304;5.776;2024-02-26T14:18:40;5.20;79.90
83685;DHT22;73666;51.304;5.776;2024-02-26T14:23:41;5.30;80.00
83685;DHT22;73666;51.304;5.776;2024-02-26T14:28:43;5.30;80.00
83685;DHT22;73666;51.304;5.776;2024-02-26T14:33:44;5.30;79.80
83685;DHT22;73666;51.304;5.776;2024-02-26T14:38:45;5.30;79.90
83685;DHT22;73666;51.304;5.776;2024-02-26T14:43:46;5.30;79.80
83685;DHT22;73666;51.304;5.776;2024-02-26T14:48:46;5.30;79.80
83685;DHT22;73666;51.304;5.776;2024-02-26T14:53:47;5.30;79.60
83685;DHT22;73666;51.304;5.776;2024-02-26T14:58:48;5.30;79.60
83685;DHT22;73666;51.304;5.776;2024-02-26T15:03:49;5.30;79.70
83685;DHT22;73666;51.304;5.776;2024-02-26T15:08:50;5.30;79.80
83685;DHT22;73666;51.304;5.776;2024-02-26T15:13:51;5.30;79.70
83685;DHT22;73666;51.304;5.776;2024-02-26T15:18:53;5.30;79.70
83685;DHT22;73666;51.304;5.776;2024-02-26T15:23:54;5.30;79.70
83685;DHT22;73666;51.304;5.776;2024-02-26T15:28:55;5.30;79.50
83685;DHT22;73666;51.304;5.776;2024-02-26T15:33:55;5.20;79.70
83685;DHT22;73666;51.304;5.776;2024-02-26T15:38:56;5.30;79.60
83685;DHT22;73666;51.304;5.776;2024-02-26T15:44:00;5.20;79.60
83685;DHT22;73666;51.304;5.776;2024-02-26T15:49:01;5.20;79.50
83685;DHT22;73666;51.304;5.776;2024-02-26T15:54:02;5.20;79.50
83685;DHT22;73666;51.304;5.776;2024-02-26T15:59:03;5.10;79.50
83685;DHT22;73666;51.304;5.776;2024-02-26T16:04:04;5.10;79.60
83685;DHT22;73666;51.304;5.776;2024-02-26T16:09:04;5.10;79.70
83685;DHT22;73666;51.304;5.776;2024-02-26T16:19:18;5.00;79.70
83685;DHT22;73666;51.304;5.776;2024-02-26T16:24:18;5.00;79.80
83685;DHT22;73666;51.304;5.776;2024-02-26T16:29:19;5.00;79.90
83685;DHT22;73666;51.304;5.776;2024-02-26T16:34:20;5.00;79.80
83685;DHT22;73666;51.304;5.776;2024-02-26T16:39:21;5.00;79.90
83685;DHT22;73666;51.304;5.776;2024-02-26T16:44:22;5.00;79.80
83685;DHT22;73666;51.304;5.776;2024-02-26T16:49:23;5.00;79.80
83685;DHT22;73666;51.304;5.776;2024-02-26T16:54:24;4.90;79.80
83685;DHT22;73666;51.304;5.776;2024-02-26T16:59:24;4.90;79.70
83685;DHT22;73666;51.304;5.776;2024-02-26T17:04:31;4.90;79.70
83685;DHT22;73666;51.304;5.776;2024-02-26T17:09:32;4.90;79.70
83685;DHT22;73666;51.304;5.776;2024-02-26T17:14:33;4.90;79.70
83685;DHT22;73666;51.304;5.776;2024-02-26T17:19:34;4.90;79.70
83685;DHT22;73666;51.304;5.776;2024-02-26T17:24:35;4.90;79.70
83685;DHT22;73666;51.304;5.776;2024-02-26T17:29:36;4.90;79.70
83685;DHT22;73666;51.304;5.776;2024-02-26T17:34:38;4.90;79.70
83685;DHT22;73666;51.304;5.776;2024-02-26T17:39:38;4.90;79.70
83685;DHT22;73666;51.304;5.776;2024-02-26T17:44:39;4.90;79.80
83685;DHT22;73666;51.304;5.776;2024-02-26T17:49:40;4.90;79.80
83685;DHT22;73666;51.304;5.776;2024-02-26T17:54:41;4.90;79.70
83685;DHT22;73666;51.304;5.776;2024-02-26T17:59:41;4.90;79.70
83685;DHT22;73666;51.304;5.776;2024-02-26T18:04:42;4.90;79.80
83685;DHT22;73666;51.304;5.776;2024-02-26T18:09:44;4.90;79.80
83685;DHT22;73666;51.304;5.776;2024-02-26T18:14:45;4.80;79.80
83685;DHT22;73666;51.304;5.776;2024-02-26T18:19:46;4.80;79.70
83685;DHT22;73666;51.304;5.776;2024-02-26T18:24:46;4.80;79.50
83685;DHT22;73666;51.304;5.776;2024-02-26T18:29:47;4.80;79.50
83685;DHT22;73666;51.304;5.776;2024-02-26T18:34:48;4.80;79.50
83685;DHT22;73666;51.304;5.776;2024-02-26T18:39:49;4.80;79.60
83685;DHT22;73666;51.304;5.776;2024-02-26T18:44:50;4.80;79.50
83685;DHT22;73666;51.304;5.776;2024-02-26T18:49:51;4.70;79.40
83685;DHT22;73666;51.304;5.776;2024-02-26T18:54:52;4.80;79.40
83685;DHT22;73666;51.304;5.776;2024-02-26T18:59:53;4.80;79.40
83685;DHT22;73666;51.304;5.776;2024-02-26T19:04:54;4.80;79.30
83685;DHT22;73666;51.304;5.776;2024-02-26T19:09:55;4.80;79.30
83685;DHT22;73666;51.304;5.776;2024-02-26T19:14:55;4.80;79.40
83685;DHT22;73666;51.304;5.776;2024-02-26T19:19:58;4.70;79.40
83685;DHT22;73666;51.304;5.776;2024-02-26T19:24:58;4.70;79.50
83685;DHT22;73666;51.304;5.776;2024-02-26T19:30:02;4.70;79.50
83685;DHT22;73666;51.304;5.776;2024-02-26T19:35:07;4.70;79.60
83685;DHT22;73666;51.304;5.776;2024-02-26T19:40:10;4.70;79.50
83685;DHT22;73666;51.304;5.776;2024-02-26T19:45:12;4.70;79.60
83685;DHT22;73666;51.304;5.776;2024-02-26T19:50:13;4.70;79.50
83685;DHT22;73666;51.304;5.776;2024-02-26T19:55:14;4.70;79.30
83685;DHT22;73666;51.304;5.776;2024-02-26T20:00:16;4.70;79.40
83685;DHT22;73666;51.304;5.776;2024-02-26T20:05:17;4.60;79.30
83685;DHT22;73666;51.304;5.776;2024-02-26T20:10:18;4.50;79.30
83685;DHT22;73666;51.304;5.776;2024-02-26T20:15:19;4.50;79.30
83685;DHT22;73666;51.304;5.776;2024-02-26T20:20:21;4.50;79.30
83685;DHT22;73666;51.304;5.776;2024-02-26T20:25:26;4.50;79.20
83685;DHT22;73666;51.304;5.776;2024-02-26T20:30:28;4.50;79.30
83685;DHT22;73666;51.304;5.776;2024-02-26T20:35:32;4.50;79.20
83685;DHT22;73666;51.304;5.776;2024-02-26T20:40:33;4.50;79.20
83685;DHT22;73666;51.304;5.776;2024-02-26T20:45:34;4.50;79.30
83685;DHT22;73666;51.304;5.776;2024-02-26T20:50:36;4.50;79.10
83685;DHT22;73666;51.304;5.776;2024-02-26T20:55:38;4.50;79.10
83685;DHT22;73666;51.304;5.776;2024-02-26T21:00:41;4.50;78.90
83685;DHT22;73666;51.304;5.776;2024-02-26T21:05:42;4.50;79.00
83685;DHT22;73666;51.304;5.776;2024-02-26T21:10:43;4.50;78.90
83685;DHT22;73666;51.304;5.776;2024-02-26T21:15:48;4.50;78.90
83685;DHT22;73666;51.304;5.776;2024-02-26T21:20:49;4.50;78.80
83685;DHT22;73666;51.304;5.776;2024-02-26T21:25:50;4.50;78.70
83685;DHT22;73666;51.304;5.776;2024-02-26T21:30:53;4.50;78.70
83685;DHT22;73666;51.304;5.776;2024-02-26T21:35:57;4.50;78.60
83685;DHT22;73666;51.304;5.776;2024-02-26T21:40:57;4.50;78.50
83685;DHT22;73666;51.304;5.776;2024-02-26T21:45:58;4.40;78.60
83685;DHT22;73666;51.304;5.776;2024-02-26T21:50:59;4.40;78.50
83685;DHT22;73666;51.304;5.776;2024-02-26T21:56:01;4.40;78.60
83685;DHT22;73666;51.304;5.776;2024-02-26T22:01:04;4.40;78.40
83685;DHT22;73666;51.304;5.776;2024-02-26T22:06:05;4.40;78.40
83685;DHT22;73666;51.304;5.776;2024-02-26T22:11:06;4.40;78.40
83685;DHT22;73666;51.304;5.776;2024-02-26T22:16:07;4.40;78.40
83685;DHT22;73666;51.304;5.776;2024-02-26T22:21:08;4.40;78.30
83685;DHT22;73666;51.304;5.776;2024-02-26T22:26:09;4.40;78.20
83685;DHT22;73666;51.304;5.776;2024-02-26T22:31:11;4.40;78.20
83685;DHT22;73666;51.304;5.776;2024-02-26T22:36:12;4.40;78.20
83685;DHT22;73666;51.304;5.776;2024-02-26T22:41:13;4.40;78.20
83685;DHT22;73666;51.304;5.776;2024-02-26T22:46:14;4.40;78.00
83685;DHT22;73666;51.304;5.776;2024-02-26T22:51:15;4.40;78.20
83685;DHT22;73666;51.304;5.776;2024-02-26T22:56:15;4.40;78.00
83685;DHT22;73666;51.304;5.776;2024-02-26T23:01:16;4.30;77.90
83685;DHT22;73666;51.304;5.776;2024-02-26T23:06:18;4.40;77.90
83685;DHT22;73666;51.304;5.776;2024-02-26T23:11:19;4.30;78.00
83685;DHT22;73666;51.304;5.776;2024-02-26T23:16:19;4.40;78.10
83685;DHT22;73666;51.304;5.776;2024-02-26T23:21:20;4.30;78.10
83685;DHT22;73666;51.304;5.776;2024-02-26T23:26:21;4.40;78.00
83685;DHT22;73666;51.304;5.776;2024-02-26T23:31:22;4.30;77.90
83685;DHT22;73666;51.304;5.776;2024-02-26T23:36:24;4.30;78.10
83685;DHT22;73666;51.304;5.776;2024-02-26T23:41:24;4.40;78.10
83685;DHT22;73666;51.304;5.776;2024-02-26T23:46:31;4.40;78.00
83685;DHT22;73666;51.304;5.776;2024-02-26T23:51:33;4.40;78.00
83685;DHT22;73666;51.304;5.776;2024-02-26T23:56:34;4.40;78.00
